KMTW/MTW METAR and TAF weather

Enter ICAO airport designator
Station Type Date Time Source
KMTW METAR 2018/12/15 01:56 UTC NOAA

KMTW 150156Z AUTO 28008KT 10SM CLR 01/M04 A3020 RMK AO2 SLP250 T00111039 FZRANO


Station Type Date Time Source
KMTW Decoded METAR 2018/12/15 01:56 UTC NOAA

Manitowoc, Manitowoc County Airport, WI, United States (KMTW) 44-08N 087-41W
Dec 14, 2018 - 08:56 PM EST / 2018.12.15 0156 UTC
Wind: from the W (280 degrees) at 9 MPH (8 KT):0
Visibility: 10 mile(s):0
Sky conditions: clear
Temperature: 34.0 F (1.1 C)
Windchill: 26 F (-3 C):1
Dew Point: 25.0 F (-3.9 C)
Relative Humidity: 69%
Pressure (altimeter): 30.2 in. Hg (1022 hPa)
ob: KMTW 150156Z AUTO 28008KT 10SM CLR 01/M04 A3020 RMK AO2 SLP250 T00111039 FZRANO
cycle: 2

Station Type Date Time Source
KMTW TAF 2018/12/14 18:39 UTC NOAA

TAF
AMD KMTW 141737Z 1418/1518 26008KT 5SM BR SCT005
TEMPO 1418/1420 3SM BR BKN005
FM142000 27006KT P6SM SKC
FM150500 33004KT 6SM BR SKC
FM150900 02004KT 3SM BR SKC
FM151500 07004KT P6SM FEW150


Example: see airport list